Time;durP1;ratioP1;P1;durP2;ratioP2;P2;SDS_P1;SDS_P2;PMS_P1;PMS_P2;Temp;Humidity;BMP_temperature;BMP_pressure;BME280_temperature;BME280_humidity;BME280_pressure;Samples;Min_cycle;Max_cycle;Signal;HPM_P1;HPM_P2
2023/05/14 00:05:31;;;;;;;;;;;13.80;96.40;;;;;;5888636;24;20355;-96
2023/05/14 00:08:45;;;;;;;;;;;13.60;96.40;;;;;;5894334;24;19908;-96
2023/05/14 00:15:01;;;;;;;;;;;13.80;96.50;;;;;;5901214;24;19930;-96
2023/05/14 00:18:05;;;;;;;;;;;13.80;96.50;;;;;;5933272;24;19918;-96
2023/05/14 00:21:00;;;;;;;;;;;13.70;96.50;;;;;;5968819;23;19913;-96
2023/05/14 00:23:56;;;;;;;;;;;13.80;96.50;;;;;;6025513;23;19906;-96
2023/05/14 00:26:50;;;;;;;;;;;13.80;96.50;;;;;;6027496;23;20002;-96
2023/05/14 00:33:04;;;;;;;;;;;13.80;96.60;;;;;;5983947;24;19926;-96
2023/05/14 00:35:59;;;;;;;;;;;13.60;96.60;;;;;;5999721;24;20245;-96
2023/05/14 00:38:46;;;;;;;;;;;13.70;96.60;;;;;;5997627;24;19903;-96
2023/05/14 00:41:35;;;;;;;;;;;13.90;96.70;;;;;;6018637;23;19937;-96
2023/05/14 00:47:38;;;;;;;;;;;13.70;96.70;;;;;;6028691;23;19906;-96
2023/05/14 00:50:36;;;;;;;;;;;13.70;96.70;;;;;;5977504;23;19913;-96
2023/05/14 00:53:34;;;;;;;;;;;13.70;96.70;;;;;;5971675;24;19893;-96
2023/05/14 00:56:32;;;;;;;;;;;;;;;;;;;;;
2023/05/14 00:59:28;;;;;;;;;;;13.70;96.70;;;;;;5973128;24;19907;-96
2023/05/14 01:02:17;;;;;;;;;;;13.70;96.70;;;;;;5947992;24;19903;-96
2023/05/14 01:05:15;;;;;;;;;;;13.70;96.70;;;;;;5890713;24;19980;-96
2023/05/14 01:08:11;;;;;;;;;;;13.70;96.80;;;;;;5913647;24;20453;-96
2023/05/14 01:14:10;;;;;;;;;;;13.70;96.80;;;;;;5910104;24;19952;-96
2023/05/14 01:16:57;;;;;;;;;;;13.70;96.80;;;;;;5940575;24;19906;-96
2023/05/14 01:19:46;;;;;;;;;;;13.70;96.80;;;;;;5964230;24;19985;-96
2023/05/14 01:22:32;;;;;;;;;;;13.80;96.80;;;;;;5967994;24;19903;-96
2023/05/14 01:25:20;;;;;;;;;;;13.70;96.80;;;;;;5964909;24;19907;-96
2023/05/14 01:28:09;;;;;;;;;;;13.70;96.80;;;;;;5964978;24;19903;-96
2023/05/14 01:30:34;;;;;;;;;;;13.70;96.80;;;;;;6008228;23;19930;-96
2023/05/14 01:33:26;;;;;;;;;;;14.00;97.00;;;;;;6020751;23;19925;-96
2023/05/14 01:36:14;;;;;;;;;;;13.70;96.90;;;;;;6023048;23;19979;-96
2023/05/14 01:39:23;;;;;;;;;;;13.70;96.90;;;;;;6019210;23;19953;-96
2023/05/14 01:42:26;;;;;;;;;;;13.70;96.90;;;;;;6101375;23;19901;-96
2023/05/14 01:45:15;;;;;;;;;;;13.70;96.90;;;;;;6114037;23;20323;-96
2023/05/14 01:48:00;;;;;;;;;;;13.70;96.90;;;;;;6112737;23;19945;-96
2023/05/14 01:50:58;;;;;;;;;;;13.70;96.90;;;;;;6135260;23;20319;-96
2023/05/14 01:53:51;;;;;;;;;;;13.60;96.80;;;;;;6137122;23;19901;-96
2023/05/14 01:56:36;;;;;;;;;;;13.70;96.90;;;;;;6107627;23;19905;-96
2023/05/14 01:59:19;;;;;;;;;;;13.70;96.90;;;;;;6114543;23;19976;-96
2023/05/14 02:02:11;;;;;;;;;;;13.70;96.90;;;;;;6089918;23;19905;-96
2023/05/14 02:04:58;;;;;;;;;;;13.70;96.90;;;;;;6142989;23;19924;-96
2023/05/14 02:07:47;;;;;;;;;;;13.70;96.90;;;;;;6167897;23;19919;-96
2023/05/14 02:10:45;;;;;;;;;;;13.70;96.90;;;;;;6143087;23;19905;-96
2023/05/14 02:13:45;;;;;;;;;;;;;;;;;;;;;
2023/05/14 02:16:58;;;;;;;;;;;13.70;96.90;;;;;;6166205;23;19940;-96
2023/05/14 02:19:51;;;;;;;;;;;13.70;96.90;;;;;;6167072;23;19901;-96
2023/05/14 02:22:44;;;;;;;;;;;13.70;96.90;;;;;;5996115;23;19903;-96
2023/05/14 02:25:52;;;;;;;;;;;13.60;96.90;;;;;;6017238;23;20312;-96
2023/05/14 02:28:37;;;;;;;;;;;13.70;96.90;;;;;;5996862;23;19906;-96
2023/05/14 02:31:27;;;;;;;;;;;13.70;96.90;;;;;;6016788;23;19909;-96
2023/05/14 02:34:12;;;;;;;;;;;13.70;97.20;;;;;;5997297;23;19918;-96
2023/05/14 02:37:01;;;;;;;;;;;13.70;96.90;;;;;;5996313;23;19906;-96
2023/05/14 02:40:05;;;;;;;;;;;13.70;96.90;;;;;;6020709;23;19903;-96
2023/05/14 02:42:52;;;;;;;;;;;13.70;96.90;;;;;;6019905;23;19909;-96
2023/05/14 02:45:42;;;;;;;;;;;13.70;96.90;;;;;;5996720;23;19926;-96
2023/05/14 02:48:33;;;;;;;;;;;13.70;96.90;;;;;;6000950;23;19925;-96
2023/05/14 02:51:21;;;;;;;;;;;13.70;96.90;;;;;;5998630;24;19960;-96
2023/05/14 02:54:16;;;;;;;;;;;13.60;96.90;;;;;;6102921;23;19970;-96
2023/05/14 02:56:42;;;;;;;;;;;13.80;97.00;;;;;;6107686;23;19901;-96
2023/05/14 02:59:32;;;;;;;;;;;13.70;96.90;;;;;;6080076;23;19909;-96
2023/05/14 03:02:20;;;;;;;;;;;13.70;96.90;;;;;;6082589;23;19973;-96
2023/05/14 03:05:13;;;;;;;;;;;13.70;96.90;;;;;;6108674;23;19911;-96
2023/05/14 03:08:08;;;;;;;;;;;13.70;96.90;;;;;;6112064;23;20039;-96
2023/05/14 03:11:00;;;;;;;;;;;13.70;96.90;;;;;;6087779;23;19893;-96
2023/05/14 03:14:15;;;;;;;;;;;13.70;96.90;;;;;;6107697;23;19928;-96
2023/05/14 03:17:00;;;;;;;;;;;13.70;96.90;;;;;;6106304;23;19905;-96
2023/05/14 03:19:47;;;;;;;;;;;14.00;97.00;;;;;;6108239;23;19902;-96
2023/05/14 03:22:39;;;;;;;;;;;13.80;96.90;;;;;;6083779;23;19908;-96
2023/05/14 03:28:37;;;;;;;;;;;13.70;96.90;;;;;;6053569;23;19958;-96
2023/05/14 03:31:35;;;;;;;;;;;;;;;;;;;;;
2023/05/14 03:34:31;;;;;;;;;;;13.70;97.00;;;;;;6018963;23;19913;-96
2023/05/14 03:40:37;;;;;;;;;;;13.70;96.90;;;;;;5940281;24;19937;-96
2023/05/14 03:43:33;;;;;;;;;;;13.70;96.90;;;;;;5944620;24;19982;-96
2023/05/14 03:46:19;;;;;;;;;;;13.70;96.90;;;;;;5943408;24;19923;-96
2023/05/14 03:49:09;;;;;;;;;;;13.70;96.90;;;;;;5946905;24;19982;-96
2023/05/14 03:51:58;;;;;;;;;;;13.70;96.90;;;;;;5938508;24;19934;-96
2023/05/14 03:54:54;;;;;;;;;;;13.70;97.00;;;;;;5943763;24;19904;-96
2023/05/14 03:57:55;;;;;;;;;;;13.70;96.90;;;;;;5974195;24;19918;-96
2023/05/14 04:00:43;;;;;;;;;;;13.70;96.90;;;;;;5971182;24;19943;-96
2023/05/14 04:03:28;;;;;;;;;;;13.60;96.90;;;;;;5971891;24;19903;-96
2023/05/14 04:09:25;;;;;;;;;;;13.70;96.90;;;;;;5998992;24;19954;-96
2023/05/14 04:12:34;;;;;;;;;;;13.70;97.00;;;;;;5998572;24;20353;-96
2023/05/14 04:15:23;;;;;;;;;;;13.70;97.00;;;;;;6001314;24;19894;-96
2023/05/14 04:18:16;;;;;;;;;;;13.70;97.00;;;;;;6069615;23;19901;-96
2023/05/14 04:21:20;;;;;;;;;;;13.70;97.00;;;;;;6002612;24;19904;-96
2023/05/14 04:24:10;;;;;;;;;;;13.70;97.00;;;;;;5901380;24;19903;-96
2023/05/14 04:27:18;;;;;;;;;;;13.70;97.00;;;;;;5947612;24;19903;-96
2023/05/14 04:36:32;;;;;;;;;;;13.70;97.00;;;;;;5864887;24;19936;-96
2023/05/14 04:39:31;;;;;;;;;;;;;;;;;;;;;
2023/05/14 04:49:00;;;;;;;;;;;;;;;;;;;;;
2023/05/14 04:55:10;;;;;;;;;;;13.40;96.90;;;;;;5878689;24;19968;-96
2023/05/14 04:58:22;;;;;;;;;;;13.70;97.30;;;;;;5938160;24;19903;-96
2023/05/14 05:01:19;;;;;;;;;;;13.70;96.90;;;;;;6005673;23;20368;-96
2023/05/14 05:04:16;;;;;;;;;;;13.70;96.90;;;;;;6027292;23;20064;-96
2023/05/14 05:07:21;;;;;;;;;;;13.70;97.00;;;;;;6015993;23;19934;-96
2023/05/14 05:10:04;;;;;;;;;;;13.70;97.00;;;;;;6051739;23;19963;-96
2023/05/14 05:12:53;;;;;;;;;;;13.80;97.00;;;;;;6033436;23;19898;-96
2023/05/14 05:15:45;;;;;;;;;;;13.70;96.90;;;;;;6055968;23;19909;-96
2023/05/14 05:18:48;;;;;;;;;;;13.70;96.90;;;;;;6082983;23;19905;-96
2023/05/14 05:21:45;;;;;;;;;;;;;;;;;;;;;
2023/05/14 05:24:48;;;;;;;;;;;13.70;96.90;;;;;;5973932;24;19919;-96
2023/05/14 05:27:50;;;;;;;;;;;;;;;;;;;;;
2023/05/14 05:30:56;;;;;;;;;;;;;;;;;;;;;
2023/05/14 05:37:15;;;;;;;;;;;13.70;96.90;;;;;;5759334;25;19906;-96
2023/05/14 05:40:04;;;;;;;;;;;13.70;96.90;;;;;;5731201;25;20327;-96
2023/05/14 05:42:54;;;;;;;;;;;13.70;96.90;;;;;;5732580;25;19910;-96
2023/05/14 05:45:51;;;;;;;;;;;;;;;;;;;;;
2023/05/14 05:48:52;;;;;;;;;;;13.70;96.90;;;;;;5730158;24;19914;-96
2023/05/14 05:54:42;;;;;;;;;;;13.70;97.20;;;;;;5681413;25;19914;-96
2023/05/14 05:57:34;;;;;;;;;;;13.70;96.90;;;;;;5682751;25;19915;-96
2023/05/14 06:00:25;;;;;;;;;;;13.70;96.90;;;;;;5734811;24;19972;-96
2023/05/14 06:03:14;;;;;;;;;;;13.70;96.90;;;;;;5754090;25;19932;-96
2023/05/14 06:06:51;;;;;;;;;;;;;;;;;;;;;
2023/05/14 06:09:08;;;;;;;;;;;13.70;96.90;;;;;;5735820;25;19910;-96
2023/05/14 06:15:13;;;;;;;;;;;13.80;96.90;;;;;;5732148;25;19958;-96
2023/05/14 06:18:14;;;;;;;;;;;13.70;96.80;;;;;;5729403;25;19910;-96
2023/05/14 06:24:02;;;;;;;;;;;14.00;96.90;;;;;;5728292;25;19913;-96
2023/05/14 06:26:52;;;;;;;;;;;13.80;96.80;;;;;;5732413;25;19955;-96
2023/05/14 06:29:38;;;;;;;;;;;13.70;96.80;;;;;;5734190;24;19909;-96
2023/05/14 06:35:33;;;;;;;;;;;13.80;96.80;;;;;;5729798;25;19902;-96
2023/05/14 06:38:28;;;;;;;;;;;14.10;96.90;;;;;;5730507;25;19910;-96
2023/05/14 06:41:23;;;;;;;;;;;13.80;96.80;;;;;;5774423;24;20360;-96
2023/05/14 06:44:26;;;;;;;;;;;13.80;96.80;;;;;;5752769;25;19905;-96
2023/05/14 06:47:15;;;;;;;;;;;13.80;96.80;;;;;;5806331;24;19913;-96
2023/05/14 06:50:07;;;;;;;;;;;13.80;96.80;;;;;;5811274;24;19909;-96
2023/05/14 06:53:05;;;;;;;;;;;13.80;96.80;;;;;;5812059;24;19905;-96
2023/05/14 06:55:40;;;;;;;;;;;13.80;96.80;;;;;;5810668;24;19905;-96
2023/05/14 06:58:30;;;;;;;;;;;13.80;96.70;;;;;;5805750;24;19908;-96
2023/05/14 07:01:23;;;;;;;;;;;13.80;96.70;;;;;;5806228;24;19905;-96
2023/05/14 07:07:23;;;;;;;;;;;13.80;96.70;;;;;;5803698;24;19913;-96
2023/05/14 07:10:08;;;;;;;;;;;13.80;96.70;;;;;;5805861;24;19942;-96
2023/05/14 07:12:58;;;;;;;;;;;13.80;96.70;;;;;;5791461;24;19912;-96
2023/05/14 07:15:54;;;;;;;;;;;13.90;96.70;;;;;;5778486;24;19916;-96
2023/05/14 07:19:02;;;;;;;;;;;13.80;96.60;;;;;;5825630;24;20385;-96
2023/05/14 07:21:48;;;;;;;;;;;13.80;96.60;;;;;;5749896;25;19905;-96
2023/05/14 07:27:52;;;;;;;;;;;13.80;96.60;;;;;;5753807;25;19913;-96
2023/05/14 07:30:49;;;;;;;;;;;13.90;96.60;;;;;;5731262;25;19910;-96
2023/05/14 07:33:37;;;;;;;;;;;13.90;96.60;;;;;;5734450;25;19905;-96
2023/05/14 07:36:26;;;;;;;;;;;13.80;96.50;;;;;;5758010;25;19918;-96
2023/05/14 07:39:28;;;;;;;;;;;13.80;96.50;;;;;;5733925;25;19969;-96
2023/05/14 07:45:40;;;;;;;;;;;13.90;96.50;;;;;;5756796;25;20303;-96
2023/05/14 07:54:13;;;;;;;;;;;13.80;96.50;;;;;;6166103;23;19909;-96
2023/05/14 07:57:01;;;;;;;;;;;13.90;96.50;;;;;;6138913;23;19900;-96
2023/05/14 08:00:08;;;;;;;;;;;13.90;96.50;;;;;;6165911;23;20315;-96
2023/05/14 08:03:19;;;;;;;;;;;;;;;;;;;;;
2023/05/14 08:06:26;;;;;;;;;;;;;;;;;;;;;
2023/05/14 08:09:20;;;;;;;;;;;13.90;96.40;;;;;;6165716;23;19909;-96
2023/05/14 08:12:16;;;;;;;;;;;13.80;96.40;;;;;;6164899;23;19951;-96
2023/05/14 08:15:07;;;;;;;;;;;13.90;96.40;;;;;;6163538;23;19940;-96
2023/05/14 08:18:12;;;;;;;;;;;13.90;96.40;;;;;;6162813;23;19907;-96
2023/05/14 08:21:10;;;;;;;;;;;;;;;;;;;;;
2023/05/14 08:24:28;;;;;;;;;;;13.90;96.40;;;;;;6153752;23;19901;-96
2023/05/14 08:27:22;;;;;;;;;;;13.90;96.40;;;;;;6022311;23;19946;-96
2023/05/14 08:30:11;;;;;;;;;;;13.90;96.40;;;;;;5964624;24;19934;-96
2023/05/14 08:33:14;;;;;;;;;;;;;;;;;;;;;
2023/05/14 08:39:33;;;;;;;;;;;14.00;96.40;;;;;;5967505;24;19903;-96
2023/05/14 08:42:55;;;;;;;;;;;14.00;96.30;;;;;;5943761;24;19910;-96
2023/05/14 08:45:58;;;;;;;;;;;14.00;96.30;;;;;;5936725;24;19922;-96
2023/05/14 08:48:57;;;;;;;;;;;14.00;96.30;;;;;;5895199;24;19967;-96
2023/05/14 08:51:55;;;;;;;;;;;14.00;96.30;;;;;;5793725;24;19916;-96
2023/05/14 08:58:00;;;;;;;;;;;14.00;96.30;;;;;;5754474;25;19949;-96
2023/05/14 09:01:06;;;;;;;;;;;14.10;96.30;;;;;;5762447;24;19906;-96
2023/05/14 09:03:57;;;;;;;;;;;14.00;96.20;;;;;;5776224;24;20039;-96
2023/05/14 09:07:19;;;;;;;;;;;;;;;;;;;;;
2023/05/14 09:13:28;;;;;;;;;;;14.00;96.20;;;;;;5776809;24;19912;-96
2023/05/14 09:20:16;;;;;;;;;;;;;;;;;;;;;
2023/05/14 09:23:17;;;;;;;;;;;14.10;96.10;;;;;;5848456;24;20327;-96
2023/05/14 09:26:22;;;;;;;;;;;14.10;96.10;;;;;;5842852;24;19904;-96
2023/05/14 09:29:17;;;;;;;;;;;14.10;96.10;;;;;;5858657;24;19908;-96
2023/05/14 09:32:09;;;;;;;;;;;14.00;96.00;;;;;;5857513;24;19915;-96
2023/05/14 09:35:06;;;;;;;;;;;;;;;;;;;;;
2023/05/14 09:38:05;;;;;;;;;;;14.10;96.00;;;;;;5913119;24;19918;-96
2023/05/14 09:40:39;;;;;;;;;;;14.00;96.00;;;;;;5910241;24;20310;-96
2023/05/14 09:43:31;;;;;;;;;;;14.10;96.00;;;;;;5888756;24;19937;-96
2023/05/14 09:46:28;;;;;;;;;;;14.20;96.00;;;;;;5910079;24;19904;-96
2023/05/14 09:52:27;;;;;;;;;;;14.10;96.00;;;;;;6001958;24;19922;-96
2023/05/14 09:55:32;;;;;;;;;;;14.10;96.00;;;;;;5984298;24;19894;-96
2023/05/14 09:58:26;;;;;;;;;;;14.10;96.00;;;;;;6092275;23;19949;-96
2023/05/14 10:01:14;;;;;;;;;;;14.10;96.00;;;;;;6091659;23;20483;-96
2023/05/14 10:04:27;;;;;;;;;;;14.20;96.00;;;;;;6118113;23;19967;-96
2023/05/14 10:07:16;;;;;;;;;;;14.10;95.90;;;;;;6149898;23;19908;-96
2023/05/14 10:13:29;;;;;;;;;;;14.40;96.00;;;;;;6089405;23;19908;-96
2023/05/14 10:16:30;;;;;;;;;;;14.20;96.00;;;;;;6063899;23;19908;-96
2023/05/14 10:19:29;;;;;;;;;;;14.10;95.90;;;;;;6042443;23;19892;-96
2023/05/14 10:22:26;;;;;;;;;;;14.20;95.90;;;;;;6086949;23;19886;-96
2023/05/14 10:25:24;;;;;;;;;;;;;;;;;;;;;
2023/05/14 10:28:26;;;;;;;;;;;14.20;95.90;;;;;;6089079;23;19928;-96
2023/05/14 10:31:29;;;;;;;;;;;14.20;95.90;;;;;;6066184;23;19968;-96
2023/05/14 10:41:05;;;;;;;;;;;14.20;96.20;;;;;;5952489;23;20440;-96
2023/05/14 10:44:13;;;;;;;;;;;14.20;95.90;;;;;;5995017;23;19907;-96
2023/05/14 10:58:32;;;;;;;;;;;14.20;95.80;;;;;;6170533;23;19920;-96
2023/05/14 11:01:25;;;;;;;;;;;14.40;95.90;;;;;;6039211;23;19897;-96
2023/05/14 11:04:13;;;;;;;;;;;14.30;95.80;;;;;;6061046;23;19908;-96
2023/05/14 11:10:14;;;;;;;;;;;14.30;95.80;;;;;;6058676;23;19932;-96
2023/05/14 11:14:17;;;;;;;;;;;14.30;95.70;;;;;;5945060;24;19903;-96
2023/05/14 11:20:04;;;;;;;;;;;;;;;;;;;;;
2023/05/14 11:23:21;;;;;;;;;;;14.30;95.70;;;;;;5840287;24;19907;-96
2023/05/14 11:26:29;;;;;;;;;;;14.30;95.60;;;;;;5840766;24;19904;-96
2023/05/14 11:29:41;;;;;;;;;;;;;;;;;;;;;
2023/05/14 11:32:34;;;;;;;;;;;14.30;95.60;;;;;;5856177;24;19961;-96
2023/05/14 11:38:51;;;;;;;;;;;;;;;;;;;;;
2023/05/14 11:41:52;;;;;;;;;;;14.40;95.60;;;;;;5808305;24;19905;-96
2023/05/14 11:44:38;;;;;;;;;;;14.40;95.50;;;;;;5785985;24;19912;-96
2023/05/14 11:47:25;;;;;;;;;;;14.40;95.50;;;;;;5788327;24;19936;-96
2023/05/14 11:50:20;;;;;;;;;;;14.40;95.50;;;;;;5809043;24;19909;-96
2023/05/14 11:52:52;;;;;;;;;;;14.50;95.50;;;;;;5795119;24;19963;-96
2023/05/14 11:59:13;;;;;;;;;;;14.50;95.50;;;;;;5714244;25;19913;-96
2023/05/14 12:02:23;;;;;;;;;;;14.50;95.30;;;;;;5656033;25;19915;-96
2023/05/14 12:05:10;;;;;;;;;;;14.50;95.30;;;;;;5652881;25;19986;-96
2023/05/14 12:08:11;;;;;;;;;;;14.50;95.30;;;;;;5654225;25;19906;-96
2023/05/14 12:11:16;;;;;;;;;;;;;;;;;;;;;
2023/05/14 12:14:19;;;;;;;;;;;14.50;95.30;;;;;;5706037;25;19914;-96
2023/05/14 12:17:17;;;;;;;;;;;14.40;95.20;;;;;;5705000;25;19906;-96
2023/05/14 12:20:27;;;;;;;;;;;14.60;95.20;;;;;;5704822;25;19910;-96
2023/05/14 12:23:15;;;;;;;;;;;14.50;95.20;;;;;;5704124;25;19977;-96
2023/05/14 12:26:14;;;;;;;;;;;14.60;95.10;;;;;;5703200;25;19956;-96
2023/05/14 12:29:10;;;;;;;;;;;14.60;95.10;;;;;;5738247;24;19909;-96
2023/05/14 12:32:12;;;;;;;;;;;14.60;95.10;;;;;;5831747;24;19911;-96
2023/05/14 12:35:23;;;;;;;;;;;;;;;;;;;;;
2023/05/14 12:38:23;;;;;;;;;;;14.60;95.20;;;;;;5836264;24;19938;-96
2023/05/14 12:41:15;;;;;;;;;;;14.60;95.20;;;;;;5818896;24;19912;-96
2023/05/14 12:47:25;;;;;;;;;;;14.60;95.20;;;;;;5841960;24;19949;-96
2023/05/14 12:50:27;;;;;;;;;;;14.60;95.20;;;;;;5841157;24;19925;-96
2023/05/14 12:53:35;;;;;;;;;;;14.60;95.20;;;;;;5840279;24;19908;-96
2023/05/14 12:56:46;;;;;;;;;;;14.60;95.20;;;;;;5838541;24;19935;-96
2023/05/14 13:03:15;;;;;;;;;;;14.60;95.20;;;;;;5844895;24;19979;-96
2023/05/14 13:06:14;;;;;;;;;;;14.60;95.20;;;;;;5841586;24;19927;-96
2023/05/14 13:09:17;;;;;;;;;;;;;;;;;;;;;
2023/05/14 13:12:17;;;;;;;;;;;14.60;95.20;;;;;;5813474;24;19905;-96
2023/05/14 13:22:55;;;;;;;;;;;14.60;95.20;;;;;;6162422;23;19973;-96
2023/05/14 13:25:41;;;;;;;;;;;14.60;95.30;;;;;;6144404;23;19968;-96
2023/05/14 13:28:31;;;;;;;;;;;14.60;95.30;;;;;;6171267;23;19948;-96
2023/05/14 13:34:35;;;;;;;;;;;14.60;95.30;;;;;;6172745;23;19931;-96
2023/05/14 13:37:24;;;;;;;;;;;14.60;95.30;;;;;;6148329;23;20360;-96
2023/05/14 13:40:11;;;;;;;;;;;14.60;95.30;;;;;;6165263;23;19924;-96
2023/05/14 13:42:57;;;;;;;;;;;14.60;95.30;;;;;;6129907;23;19901;-96
2023/05/14 13:45:43;;;;;;;;;;;14.60;95.30;;;;;;6154097;23;19904;-96
2023/05/14 13:48:09;;;;;;;;;;;14.60;95.30;;;;;;6129646;23;19900;-95
2023/05/14 13:50:55;;;;;;;;;;;14.60;95.30;;;;;;6105099;23;19919;-96
2023/05/14 13:53:50;;;;;;;;;;;14.60;95.30;;;;;;6129479;23;20263;-96
2023/05/14 13:56:37;;;;;;;;;;;14.60;95.30;;;;;;6155711;23;20027;-96
2023/05/14 14:05:43;;;;;;;;;;;14.60;95.30;;;;;;6157773;23;19904;-96
2023/05/14 14:08:33;;;;;;;;;;;14.60;95.30;;;;;;6151929;23;20295;-95
2023/05/14 14:10:59;;;;;;;;;;;14.50;95.30;;;;;;6128845;23;19920;-94
2023/05/14 14:13:24;;;;;;;;;;;14.60;95.40;;;;;;6127953;23;19930;-94
2023/05/14 14:15:51;;;;;;;;;;;14.60;95.40;;;;;;6129377;23;19905;-95
2023/05/14 14:18:18;;;;;;;;;;;14.60;95.40;;;;;;6105256;23;19904;-95
2023/05/14 14:20:44;;;;;;;;;;;14.60;95.50;;;;;;6104402;23;20311;-95
2023/05/14 14:23:10;;;;;;;;;;;14.60;95.50;;;;;;6127900;23;20116;-95
2023/05/14 14:25:38;;;;;;;;;;;14.60;95.50;;;;;;6129221;23;19908;-96
2023/05/14 14:28:04;;;;;;;;;;;14.50;95.80;;;;;;6129109;23;19963;-95
2023/05/14 14:30:31;;;;;;;;;;;14.50;95.50;;;;;;6128527;23;20377;-95
2023/05/14 14:32:59;;;;;;;;;;;14.50;95.50;;;;;;6105321;23;19924;-96
2023/05/14 14:35:25;;;;;;;;;;;14.50;95.50;;;;;;6107113;23;20016;-96
2023/05/14 14:37:52;;;;;;;;;;;14.50;95.50;;;;;;6131543;23;19908;-96
2023/05/14 14:40:22;;;;;;;;;;;14.50;95.50;;;;;;6130473;23;19907;-95
2023/05/14 14:42:48;;;;;;;;;;;14.50;95.60;;;;;;6106797;23;19987;-96
2023/05/14 14:45:15;;;;;;;;;;;14.50;95.60;;;;;;6130712;23;19901;-95
2023/05/14 14:47:42;;;;;;;;;;;14.50;95.60;;;;;;6107084;23;19908;-95
2023/05/14 14:50:09;;;;;;;;;;;14.50;95.60;;;;;;6130340;23;20335;-94
2023/05/14 14:52:35;;;;;;;;;;;14.50;95.60;;;;;;6106816;23;19904;-95
2023/05/14 14:55:02;;;;;;;;;;;14.50;95.70;;;;;;6131828;23;19911;-96
2023/05/14 14:57:28;;;;;;;;;;;14.50;95.70;;;;;;6108190;23;19911;-95
2023/05/14 14:59:54;;;;;;;;;;;14.50;95.80;;;;;;6131627;23;19901;-94
2023/05/14 15:02:20;;;;;;;;;;;14.50;95.80;;;;;;6131890;23;19905;-95
2023/05/14 15:04:46;;;;;;;;;;;14.50;95.90;;;;;;6130719;23;19904;-95
2023/05/14 15:07:12;;;;;;;;;;;14.40;95.80;;;;;;6106252;23;19905;-94
2023/05/14 15:09:38;;;;;;;;;;;14.40;95.80;;;;;;6106996;23;19913;-96
2023/05/14 15:12:04;;;;;;;;;;;14.40;95.80;;;;;;6130478;23;20283;-96
2023/05/14 15:14:30;;;;;;;;;;;14.40;95.80;;;;;;6130314;23;19910;-96
2023/05/14 15:16:56;;;;;;;;;;;14.50;95.90;;;;;;6105913;23;19991;-96
2023/05/14 15:19:25;;;;;;;;;;;14.40;95.80;;;;;;6106790;23;19912;-96
2023/05/14 15:21:50;;;;;;;;;;;14.50;95.90;;;;;;6106567;23;19924;-96
2023/05/14 15:24:22;;;;;;;;;;;14.50;96.20;;;;;;6107537;23;19940;-96
2023/05/14 15:26:48;;;;;;;;;;;14.40;95.90;;;;;;6108324;23;19904;-96
2023/05/14 15:29:14;;;;;;;;;;;14.40;95.90;;;;;;6131624;23;19912;-95
2023/05/14 15:31:45;;;;;;;;;;;14.90;96.00;;;;;;6156835;23;19983;-96
2023/05/14 15:34:11;;;;;;;;;;;14.40;95.90;;;;;;6106388;23;19916;-96
2023/05/14 15:36:56;;;;;;;;;;;14.40;96.00;;;;;;6105790;23;20260;-96
2023/05/14 15:39:42;;;;;;;;;;;14.40;96.00;;;;;;6130741;23;19932;-96
2023/05/14 15:42:27;;;;;;;;;;;14.40;96.00;;;;;;6130238;23;20028;-96
2023/05/14 15:45:15;;;;;;;;;;;14.40;96.00;;;;;;6156482;23;20332;-96
2023/05/14 15:48:01;;;;;;;;;;;14.40;96.00;;;;;;6130366;23;19907;-96
2023/05/14 15:50:47;;;;;;;;;;;14.40;96.00;;;;;;6131313;23;19908;-96
2023/05/14 15:53:35;;;;;;;;;;;14.40;96.00;;;;;;6131850;23;19901;-96
2023/05/14 15:56:21;;;;;;;;;;;14.40;96.00;;;;;;6131675;23;19900;-96
2023/05/14 15:59:13;;;;;;;;;;;14.40;96.00;;;;;;6156596;23;19980;-96
2023/05/14 16:01:41;;;;;;;;;;;14.40;96.10;;;;;;6156283;23;19967;-96
2023/05/14 16:04:28;;;;;;;;;;;14.40;96.10;;;;;;6131065;23;19920;-96
2023/05/14 16:07:14;;;;;;;;;;;14.30;96.10;;;;;;6131391;23;19900;-96
2023/05/14 16:10:00;;;;;;;;;;;14.40;96.10;;;;;;6157862;23;20349;-96
2023/05/14 16:12:49;;;;;;;;;;;14.40;96.10;;;;;;6133593;23;19901;-96
2023/05/14 16:15:45;;;;;;;;;;;14.40;96.20;;;;;;6134510;23;19955;-96
2023/05/14 16:18:41;;;;;;;;;;;14.40;96.20;;;;;;6152276;23;20245;-96
2023/05/14 16:21:30;;;;;;;;;;;14.40;96.20;;;;;;6131563;23;19909;-96
2023/05/14 16:24:21;;;;;;;;;;;14.40;96.20;;;;;;6154113;23;19975;-96
2023/05/14 16:27:07;;;;;;;;;;;14.40;96.20;;;;;;6106773;23;19904;-96
2023/05/14 16:29:55;;;;;;;;;;;14.40;96.20;;;;;;6156508;23;19908;-96
2023/05/14 16:32:42;;;;;;;;;;;14.40;96.30;;;;;;6155467;23;19967;-96
2023/05/14 16:35:28;;;;;;;;;;;14.40;96.30;;;;;;6130640;23;19907;-96
2023/05/14 16:38:13;;;;;;;;;;;14.40;96.30;;;;;;6130449;23;19900;-96
2023/05/14 16:40:40;;;;;;;;;;;14.40;96.30;;;;;;6130873;23;19979;-96
2023/05/14 16:43:11;;;;;;;;;;;14.40;96.30;;;;;;6105216;23;19915;-96
2023/05/14 16:45:39;;;;;;;;;;;14.40;96.30;;;;;;6105222;23;20037;-95
2023/05/14 16:48:25;;;;;;;;;;;14.70;96.40;;;;;;6130109;23;20218;-96
2023/05/14 16:51:11;;;;;;;;;;;14.40;96.30;;;;;;6130989;23;19908;-96
2023/05/14 16:53:57;;;;;;;;;;;14.40;96.30;;;;;;6130580;23;19901;-96
2023/05/14 16:56:47;;;;;;;;;;;14.40;96.30;;;;;;6130543;23;20294;-96
2023/05/14 16:59:15;;;;;;;;;;;14.40;96.30;;;;;;6130394;23;19900;-96
2023/05/14 17:02:01;;;;;;;;;;;14.40;96.30;;;;;;6105091;23;19924;-96
2023/05/14 17:04:37;;;;;;;;;;;14.40;96.40;;;;;;6154916;23;20310;-96
2023/05/14 17:07:25;;;;;;;;;;;14.30;96.40;;;;;;6106395;23;20295;-96
2023/05/14 17:10:10;;;;;;;;;;;14.40;96.40;;;;;;6130573;23;19912;-96
2023/05/14 17:12:44;;;;;;;;;;;14.50;96.40;;;;;;6130559;23;19900;-95
2023/05/14 17:15:10;;;;;;;;;;;14.30;96.40;;;;;;6105109;23;19904;-96
2023/05/14 17:17:56;;;;;;;;;;;14.40;96.40;;;;;;6105270;23;19905;-96
2023/05/14 17:20:22;;;;;;;;;;;14.40;96.40;;;;;;6155832;23;19971;-96
2023/05/14 17:23:08;;;;;;;;;;;14.40;96.40;;;;;;6105892;23;20330;-96
2023/05/14 17:25:34;;;;;;;;;;;14.40;96.40;;;;;;6130141;23;20368;-96
2023/05/14 17:28:01;;;;;;;;;;;14.40;96.40;;;;;;6105577;23;19912;-95
2023/05/14 17:30:47;;;;;;;;;;;14.40;96.50;;;;;;6129967;23;20219;-95
2023/05/14 17:33:16;;;;;;;;;;;14.40;96.60;;;;;;6129707;23;19900;-95
2023/05/14 17:36:05;;;;;;;;;;;14.40;96.70;;;;;;6105420;23;19912;-96
2023/05/14 17:38:33;;;;;;;;;;;14.30;96.60;;;;;;6130203;23;19904;-96
2023/05/14 17:41:06;;;;;;;;;;;14.40;96.70;;;;;;6105625;23;19909;-96
2023/05/14 17:43:52;;;;;;;;;;;14.60;96.90;;;;;;6105417;23;19904;-96
2023/05/14 17:46:18;;;;;;;;;;;14.30;96.90;;;;;;6154982;23;19927;-94
2023/05/14 17:52:14;;;;;;;;;;;14.40;96.90;;;;;;6159602;23;19962;-96
2023/05/14 17:55:05;;;;;;;;;;;14.30;96.90;;;;;;6131018;23;19923;-96
2023/05/14 17:58:00;;;;;;;;;;;14.30;96.90;;;;;;6130759;23;19901;-96
2023/05/14 18:07:21;;;;;;;;;;;14.30;96.90;;;;;;6095729;23;19953;-95
2023/05/14 18:10:35;;;;;;;;;;;;;;;;;;;;;
